sensor_id;sensor_type;location;lat;lon;timestamp;temperature;humidity
57833;DHT22;43667;53.036;6.740;2022-10-24T00:00:54;14.80;99.90
57833;DHT22;43667;53.036;6.740;2022-10-24T00:03:19;14.70;99.90
57833;DHT22;43667;53.036;6.740;2022-10-24T00:05:46;14.70;99.90
57833;DHT22;43667;53.036;6.740;2022-10-24T00:08:13;14.60;99.90
57833;DHT22;43667;53.036;6.740;2022-10-24T00:10:47;14.60;99.90
57833;DHT22;43667;53.036;6.740;2022-10-24T00:13:15;14.50;99.90
57833;DHT22;43667;53.036;6.740;2022-10-24T00:15:47;14.50;99.90
57833;DHT22;43667;53.036;6.740;2022-10-24T00:18:12;14.50;99.90
57833;DHT22;43667;53.036;6.740;2022-10-24T00:20:38;14.50;99.90
57833;DHT22;43667;53.036;6.740;2022-10-24T00:23:04;14.50;99.90
57833;DHT22;43667;53.036;6.740;2022-10-24T00:25:30;14.50;99.90
57833;DHT22;43667;53.036;6.740;2022-10-24T00:27:55;14.40;99.90
57833;DHT22;43667;53.036;6.740;2022-10-24T00:30:21;14.40;99.90
57833;DHT22;43667;53.036;6.740;2022-10-24T00:32:46;14.40;99.90
57833;DHT22;43667;53.036;6.740;2022-10-24T00:35:12;14.30;99.90
57833;DHT22;43667;53.036;6.740;2022-10-24T00:37:38;14.30;99.90
57833;DHT22;43667;53.036;6.740;2022-10-24T00:40:04;14.30;99.90
57833;DHT22;43667;53.036;6.740;2022-10-24T00:42:30;14.30;99.90
57833;DHT22;43667;53.036;6.740;2022-10-24T00:44:56;14.30;99.90
57833;DHT22;43667;53.036;6.740;2022-10-24T00:47:24;14.30;99.90
57833;DHT22;43667;53.036;6.740;2022-10-24T00:52:23;14.30;99.90
57833;DHT22;43667;53.036;6.740;2022-10-24T00:54:50;14.30;99.90
57833;DHT22;43667;53.036;6.740;2022-10-24T00:57:45;14.30;99.90
57833;DHT22;43667;53.036;6.740;2022-10-24T01:00:13;14.30;99.90
57833;DHT22;43667;53.036;6.740;2022-10-24T01:02:39;14.30;99.90
57833;DHT22;43667;53.036;6.740;2022-10-24T01:05:06;14.30;99.90
57833;DHT22;43667;53.036;6.740;2022-10-24T01:13:20;14.20;99.90
57833;DHT22;43667;53.036;6.740;2022-10-24T01:15:56;14.20;99.90
57833;DHT22;43667;53.036;6.740;2022-10-24T01:18:45;14.20;99.90
57833;DHT22;43667;53.036;6.740;2022-10-24T01:21:13;14.30;99.90
57833;DHT22;43667;53.036;6.740;2022-10-24T01:26:55;14.40;99.90
57833;DHT22;43667;53.036;6.740;2022-10-24T01:29:43;14.40;99.90
57833;DHT22;43667;53.036;6.740;2022-10-24T01:37:54;14.40;99.90
57833;DHT22;43667;53.036;6.740;2022-10-24T01:40:26;14.50;99.90
57833;DHT22;43667;53.036;6.740;2022-10-24T01:42:58;14.50;99.90
57833;DHT22;43667;53.036;6.740;2022-10-24T01:45:30;14.40;99.90
57833;DHT22;43667;53.036;6.740;2022-10-24T01:47:59;14.50;99.90
57833;DHT22;43667;53.036;6.740;2022-10-24T01:50:27;14.50;99.90
57833;DHT22;43667;53.036;6.740;2022-10-24T01:52:54;14.50;99.90
57833;DHT22;43667;53.036;6.740;2022-10-24T01:55:22;14.50;99.90
57833;DHT22;43667;53.036;6.740;2022-10-24T01:57:48;14.50;99.90
57833;DHT22;43667;53.036;6.740;2022-10-24T02:00:23;14.40;99.90
57833;DHT22;43667;53.036;6.740;2022-10-24T02:02:54;14.40;99.90
57833;DHT22;43667;53.036;6.740;2022-10-24T02:05:32;14.50;99.90
57833;DHT22;43667;53.036;6.740;2022-10-24T02:08:05;14.40;99.90
57833;DHT22;43667;53.036;6.740;2022-10-24T02:10:33;14.40;99.90
57833;DHT22;43667;53.036;6.740;2022-10-24T02:13:04;14.40;99.90
57833;DHT22;43667;53.036;6.740;2022-10-24T02:15:35;14.30;99.90
57833;DHT22;43667;53.036;6.740;2022-10-24T02:18:03;14.40;99.90
57833;DHT22;43667;53.036;6.740;2022-10-24T02:20:41;14.30;99.90
57833;DHT22;43667;53.036;6.740;2022-10-24T02:25:46;14.30;99.90
57833;DHT22;43667;53.036;6.740;2022-10-24T02:28:17;14.30;99.90
57833;DHT22;43667;53.036;6.740;2022-10-24T02:30:49;14.30;99.90
57833;DHT22;43667;53.036;6.740;2022-10-24T02:33:17;14.30;99.90
57833;DHT22;43667;53.036;6.740;2022-10-24T02:35:43;14.30;99.90
57833;DHT22;43667;53.036;6.740;2022-10-24T02:38:23;14.40;99.90
57833;DHT22;43667;53.036;6.740;2022-10-24T02:40:51;14.50;99.90
57833;DHT22;43667;53.036;6.740;2022-10-24T02:43:20;14.50;99.90
57833;DHT22;43667;53.036;6.740;2022-10-24T02:45:48;14.60;99.90
57833;DHT22;43667;53.036;6.740;2022-10-24T02:48:16;14.60;99.90
57833;DHT22;43667;53.036;6.740;2022-10-24T02:50:43;14.60;99.90
57833;DHT22;43667;53.036;6.740;2022-10-24T02:53:12;14.60;99.90
57833;DHT22;43667;53.036;6.740;2022-10-24T02:55:38;14.50;99.90
57833;DHT22;43667;53.036;6.740;2022-10-24T02:58:04;14.60;99.90
57833;DHT22;43667;53.036;6.740;2022-10-24T03:00:30;14.60;99.90
57833;DHT22;43667;53.036;6.740;2022-10-24T03:02:55;14.50;99.90
57833;DHT22;43667;53.036;6.740;2022-10-24T03:05:21;14.60;99.90
57833;DHT22;43667;53.036;6.740;2022-10-24T03:07:46;14.70;99.90
57833;DHT22;43667;53.036;6.740;2022-10-24T03:10:12;14.70;99.90
57833;DHT22;43667;53.036;6.740;2022-10-24T03:12:37;14.80;99.90
57833;DHT22;43667;53.036;6.740;2022-10-24T03:15:04;14.90;99.90
57833;DHT22;43667;53.036;6.740;2022-10-24T03:17:29;14.90;99.90
57833;DHT22;43667;53.036;6.740;2022-10-24T03:19:55;14.90;99.90
57833;DHT22;43667;53.036;6.740;2022-10-24T03:22:20;15.00;99.90
57833;DHT22;43667;53.036;6.740;2022-10-24T03:24:46;15.00;99.90
57833;DHT22;43667;53.036;6.740;2022-10-24T03:27:12;15.00;99.90
57833;DHT22;43667;53.036;6.740;2022-10-24T03:29:37;15.00;99.90
57833;DHT22;43667;53.036;6.740;2022-10-24T03:32:03;14.90;99.90
57833;DHT22;43667;53.036;6.740;2022-10-24T03:34:30;14.90;99.90
57833;DHT22;43667;53.036;6.740;2022-10-24T03:36:55;14.90;99.90
57833;DHT22;43667;53.036;6.740;2022-10-24T03:39:21;14.90;99.90
57833;DHT22;43667;53.036;6.740;2022-10-24T03:41:46;14.90;99.90
57833;DHT22;43667;53.036;6.740;2022-10-24T03:44:12;14.90;99.90
57833;DHT22;43667;53.036;6.740;2022-10-24T03:46:38;14.90;99.90
57833;DHT22;43667;53.036;6.740;2022-10-24T03:49:03;14.90;99.90
57833;DHT22;43667;53.036;6.740;2022-10-24T03:51:29;14.90;99.90
57833;DHT22;43667;53.036;6.740;2022-10-24T03:53:54;14.90;99.90
57833;DHT22;43667;53.036;6.740;2022-10-24T03:56:20;15.00;99.90
57833;DHT22;43667;53.036;6.740;2022-10-24T03:58:45;15.00;99.90
57833;DHT22;43667;53.036;6.740;2022-10-24T04:01:11;15.00;99.90
57833;DHT22;43667;53.036;6.740;2022-10-24T04:03:42;15.00;99.90
57833;DHT22;43667;53.036;6.740;2022-10-24T04:06:08;15.00;99.90
57833;DHT22;43667;53.036;6.740;2022-10-24T04:08:34;15.00;99.90
57833;DHT22;43667;53.036;6.740;2022-10-24T04:10:59;15.00;99.90
57833;DHT22;43667;53.036;6.740;2022-10-24T04:13:25;14.90;99.90
57833;DHT22;43667;53.036;6.740;2022-10-24T04:15:50;14.90;99.90
57833;DHT22;43667;53.036;6.740;2022-10-24T04:18:16;14.90;99.90
57833;DHT22;43667;53.036;6.740;2022-10-24T04:20:41;14.90;99.90
57833;DHT22;43667;53.036;6.740;2022-10-24T04:23:07;14.80;99.90
57833;DHT22;43667;53.036;6.740;2022-10-24T04:25:33;14.70;99.90
57833;DHT22;43667;53.036;6.740;2022-10-24T04:27:58;14.70;99.90
57833;DHT22;43667;53.036;6.740;2022-10-24T04:30:24;14.70;99.90
57833;DHT22;43667;53.036;6.740;2022-10-24T04:32:50;14.70;99.90
57833;DHT22;43667;53.036;6.740;2022-10-24T04:35:16;14.60;99.90
57833;DHT22;43667;53.036;6.740;2022-10-24T04:37:42;14.60;99.90
57833;DHT22;43667;53.036;6.740;2022-10-24T04:40:08;14.60;99.90
57833;DHT22;43667;53.036;6.740;2022-10-24T04:42:33;14.60;99.90
57833;DHT22;43667;53.036;6.740;2022-10-24T04:44:59;14.60;99.90
57833;DHT22;43667;53.036;6.740;2022-10-24T04:47:25;14.50;99.90
57833;DHT22;43667;53.036;6.740;2022-10-24T04:49:50;14.50;99.90
57833;DHT22;43667;53.036;6.740;2022-10-24T04:52:16;14.40;99.90
57833;DHT22;43667;53.036;6.740;2022-10-24T04:54:41;14.40;99.90
57833;DHT22;43667;53.036;6.740;2022-10-24T04:57:07;14.30;99.90
57833;DHT22;43667;53.036;6.740;2022-10-24T04:59:32;14.30;99.90
57833;DHT22;43667;53.036;6.740;2022-10-24T05:01:58;14.30;99.90
57833;DHT22;43667;53.036;6.740;2022-10-24T05:04:24;14.30;99.90
57833;DHT22;43667;53.036;6.740;2022-10-24T05:06:49;14.30;99.90
57833;DHT22;43667;53.036;6.740;2022-10-24T05:09:15;14.30;99.90
57833;DHT22;43667;53.036;6.740;2022-10-24T05:11:40;14.30;99.90
57833;DHT22;43667;53.036;6.740;2022-10-24T05:14:06;14.30;99.90
57833;DHT22;43667;53.036;6.740;2022-10-24T05:16:32;14.20;99.90
57833;DHT22;43667;53.036;6.740;2022-10-24T05:18:57;14.30;99.90
57833;DHT22;43667;53.036;6.740;2022-10-24T05:21:23;14.30;99.90
57833;DHT22;43667;53.036;6.740;2022-10-24T05:23:48;14.30;99.90
57833;DHT22;43667;53.036;6.740;2022-10-24T05:26:14;14.40;99.90
57833;DHT22;43667;53.036;6.740;2022-10-24T05:28:39;14.40;99.90
57833;DHT22;43667;53.036;6.740;2022-10-24T05:31:05;14.30;99.90
57833;DHT22;43667;53.036;6.740;2022-10-24T05:33:30;14.30;99.90
57833;DHT22;43667;53.036;6.740;2022-10-24T05:35:56;14.30;99.90
57833;DHT22;43667;53.036;6.740;2022-10-24T05:38:22;14.30;99.90
57833;DHT22;43667;53.036;6.740;2022-10-24T05:40:47;14.40;99.90
57833;DHT22;43667;53.036;6.740;2022-10-24T05:43:14;14.30;99.90
57833;DHT22;43667;53.036;6.740;2022-10-24T05:45:41;14.30;99.90
57833;DHT22;43667;53.036;6.740;2022-10-24T05:48:06;14.30;99.90
57833;DHT22;43667;53.036;6.740;2022-10-24T05:50:32;14.30;99.90
57833;DHT22;43667;53.036;6.740;2022-10-24T05:52:59;14.30;99.90
57833;DHT22;43667;53.036;6.740;2022-10-24T05:55:25;14.20;99.90
57833;DHT22;43667;53.036;6.740;2022-10-24T05:57:50;14.20;99.90
57833;DHT22;43667;53.036;6.740;2022-10-24T06:00:16;14.10;99.90
57833;DHT22;43667;53.036;6.740;2022-10-24T06:02:42;14.10;99.90
57833;DHT22;43667;53.036;6.740;2022-10-24T06:05:08;14.10;99.90
57833;DHT22;43667;53.036;6.740;2022-10-24T06:07:35;14.10;99.90
57833;DHT22;43667;53.036;6.740;2022-10-24T06:10:01;14.10;99.90
57833;DHT22;43667;53.036;6.740;2022-10-24T06:12:27;14.10;99.90
57833;DHT22;43667;53.036;6.740;2022-10-24T06:14:57;14.20;99.90
57833;DHT22;43667;53.036;6.740;2022-10-24T06:17:23;14.30;99.90
57833;DHT22;43667;53.036;6.740;2022-10-24T06:19:49;14.40;99.90
57833;DHT22;43667;53.036;6.740;2022-10-24T06:22:16;14.40;99.90
57833;DHT22;43667;53.036;6.740;2022-10-24T06:24:41;14.40;99.90
57833;DHT22;43667;53.036;6.740;2022-10-24T06:27:07;14.50;99.90
57833;DHT22;43667;53.036;6.740;2022-10-24T06:29:34;14.50;99.90
57833;DHT22;43667;53.036;6.740;2022-10-24T06:32:00;14.40;99.90
57833;DHT22;43667;53.036;6.740;2022-10-24T06:34:26;14.50;99.90
57833;DHT22;43667;53.036;6.740;2022-10-24T06:36:52;14.50;99.90
57833;DHT22;43667;53.036;6.740;2022-10-24T06:39:17;14.50;99.90
57833;DHT22;43667;53.036;6.740;2022-10-24T06:41:43;14.50;99.90
57833;DHT22;43667;53.036;6.740;2022-10-24T06:44:09;14.50;99.90
57833;DHT22;43667;53.036;6.740;2022-10-24T06:46:34;14.40;99.90
57833;DHT22;43667;53.036;6.740;2022-10-24T06:49:00;14.40;99.90
57833;DHT22;43667;53.036;6.740;2022-10-24T06:51:26;14.40;99.90
57833;DHT22;43667;53.036;6.740;2022-10-24T06:53:51;14.40;99.90
57833;DHT22;43667;53.036;6.740;2022-10-24T06:56:17;14.40;99.90
57833;DHT22;43667;53.036;6.740;2022-10-24T06:58:43;14.40;99.90
57833;DHT22;43667;53.036;6.740;2022-10-24T07:01:10;14.40;99.90
57833;DHT22;43667;53.036;6.740;2022-10-24T07:03:37;14.40;99.90
57833;DHT22;43667;53.036;6.740;2022-10-24T07:06:07;14.40;99.90
57833;DHT22;43667;53.036;6.740;2022-10-24T07:08:33;14.40;99.90
57833;DHT22;43667;53.036;6.740;2022-10-24T07:10:59;14.40;99.90
57833;DHT22;43667;53.036;6.740;2022-10-24T07:13:24;14.50;99.90
57833;DHT22;43667;53.036;6.740;2022-10-24T07:15:50;14.50;99.90
57833;DHT22;43667;53.036;6.740;2022-10-24T07:18:18;14.60;99.90
57833;DHT22;43667;53.036;6.740;2022-10-24T07:20:45;14.70;99.90
57833;DHT22;43667;53.036;6.740;2022-10-24T07:23:10;14.80;99.90
57833;DHT22;43667;53.036;6.740;2022-10-24T07:25:40;14.90;99.90
57833;DHT22;43667;53.036;6.740;2022-10-24T07:28:07;14.80;99.90
57833;DHT22;43667;53.036;6.740;2022-10-24T07:30:33;14.80;99.90
57833;DHT22;43667;53.036;6.740;2022-10-24T07:32:58;14.90;99.90
57833;DHT22;43667;53.036;6.740;2022-10-24T07:35:24;14.90;99.90
57833;DHT22;43667;53.036;6.740;2022-10-24T07:37:50;14.90;99.90
57833;DHT22;43667;53.036;6.740;2022-10-24T07:40:16;14.90;99.90
57833;DHT22;43667;53.036;6.740;2022-10-24T07:42:42;14.90;99.90
57833;DHT22;43667;53.036;6.740;2022-10-24T07:45:08;14.90;99.90
57833;DHT22;43667;53.036;6.740;2022-10-24T07:47:34;15.00;99.90
57833;DHT22;43667;53.036;6.740;2022-10-24T07:49:59;15.00;99.90
57833;DHT22;43667;53.036;6.740;2022-10-24T07:52:25;15.00;99.90
57833;DHT22;43667;53.036;6.740;2022-10-24T07:54:54;15.10;99.90
57833;DHT22;43667;53.036;6.740;2022-10-24T07:57:20;15.20;99.90
57833;DHT22;43667;53.036;6.740;2022-10-24T07:59:46;15.40;99.90
57833;DHT22;43667;53.036;6.740;2022-10-24T08:02:13;15.50;99.90
57833;DHT22;43667;53.036;6.740;2022-10-24T08:04:40;15.60;99.90
57833;DHT22;43667;53.036;6.740;2022-10-24T08:07:06;15.70;99.90
57833;DHT22;43667;53.036;6.740;2022-10-24T08:09:38;15.80;99.90
57833;DHT22;43667;53.036;6.740;2022-10-24T08:12:04;15.90;99.90
57833;DHT22;43667;53.036;6.740;2022-10-24T08:14:30;15.90;99.90
57833;DHT22;43667;53.036;6.740;2022-10-24T08:16:55;15.90;99.90
57833;DHT22;43667;53.036;6.740;2022-10-24T08:19:21;15.90;99.90
57833;DHT22;43667;53.036;6.740;2022-10-24T08:21:46;15.80;99.90
57833;DHT22;43667;53.036;6.740;2022-10-24T08:24:15;15.80;99.90
57833;DHT22;43667;53.036;6.740;2022-10-24T08:26:40;15.80;99.90
57833;DHT22;43667;53.036;6.740;2022-10-24T08:29:06;15.80;99.90
57833;DHT22;43667;53.036;6.740;2022-10-24T08:31:36;15.90;99.90
57833;DHT22;43667;53.036;6.740;2022-10-24T08:34:02;16.00;99.90
57833;DHT22;43667;53.036;6.740;2022-10-24T08:36:32;16.00;99.90
57833;DHT22;43667;53.036;6.740;2022-10-24T08:38:59;16.20;99.90
57833;DHT22;43667;53.036;6.740;2022-10-24T08:41:32;16.30;99.90
57833;DHT22;43667;53.036;6.740;2022-10-24T08:44:02;16.40;99.90
57833;DHT22;43667;53.036;6.740;2022-10-24T08:46:41;16.40;99.90
57833;DHT22;43667;53.036;6.740;2022-10-24T08:49:13;16.30;99.90
57833;DHT22;43667;53.036;6.740;2022-10-24T08:51:53;16.30;99.90
57833;DHT22;43667;53.036;6.740;2022-10-24T08:54:22;16.30;99.90
57833;DHT22;43667;53.036;6.740;2022-10-24T08:56:51;16.30;99.90
57833;DHT22;43667;53.036;6.740;2022-10-24T08:59:19;16.40;99.90
57833;DHT22;43667;53.036;6.740;2022-10-24T09:02:17;16.40;99.90
57833;DHT22;43667;53.036;6.740;2022-10-24T09:04:48;16.50;99.90
57833;DHT22;43667;53.036;6.740;2022-10-24T09:07:18;16.60;99.90
57833;DHT22;43667;53.036;6.740;2022-10-24T09:10:21;16.60;99.90
57833;DHT22;43667;53.036;6.740;2022-10-24T09:12:48;16.70;99.90
57833;DHT22;43667;53.036;6.740;2022-10-24T09:15:25;16.70;99.90
57833;DHT22;43667;53.036;6.740;2022-10-24T09:17:52;16.80;99.90
57833;DHT22;43667;53.036;6.740;2022-10-24T09:20:28;16.90;99.90
57833;DHT22;43667;53.036;6.740;2022-10-24T09:22:56;17.00;99.90
57833;DHT22;43667;53.036;6.740;2022-10-24T09:25:28;17.00;99.90
57833;DHT22;43667;53.036;6.740;2022-10-24T09:27:56;17.00;99.90
57833;DHT22;43667;53.036;6.740;2022-10-24T09:30:24;17.00;99.90
57833;DHT22;43667;53.036;6.740;2022-10-24T09:32:51;17.10;99.90
57833;DHT22;43667;53.036;6.740;2022-10-24T09:35:20;17.10;99.90
57833;DHT22;43667;53.036;6.740;2022-10-24T09:37:48;17.00;99.90
57833;DHT22;43667;53.036;6.740;2022-10-24T09:40:27;17.00;99.90
57833;DHT22;43667;53.036;6.740;2022-10-24T09:43:16;17.00;99.90
57833;DHT22;43667;53.036;6.740;2022-10-24T09:46:02;17.00;99.90
57833;DHT22;43667;53.036;6.740;2022-10-24T09:48:35;16.90;99.90
57833;DHT22;43667;53.036;6.740;2022-10-24T09:51:04;16.90;99.90
57833;DHT22;43667;53.036;6.740;2022-10-24T09:53:38;16.90;99.90
57833;DHT22;43667;53.036;6.740;2022-10-24T09:56:13;16.90;99.90
57833;DHT22;43667;53.036;6.740;2022-10-24T09:58:39;17.00;99.90
57833;DHT22;43667;53.036;6.740;2022-10-24T10:01:25;17.00;99.90
57833;DHT22;43667;53.036;6.740;2022-10-24T10:04:01;17.10;99.90
57833;DHT22;43667;53.036;6.740;2022-10-24T10:06:27;17.20;99.90
57833;DHT22;43667;53.036;6.740;2022-10-24T10:08:54;17.20;99.90
57833;DHT22;43667;53.036;6.740;2022-10-24T10:11:31;17.30;99.90
57833;DHT22;43667;53.036;6.740;2022-10-24T10:14:01;17.40;99.90
57833;DHT22;43667;53.036;6.740;2022-10-24T10:16:36;17.40;99.90
57833;DHT22;43667;53.036;6.740;2022-10-24T10:19:05;17.50;99.90
57833;DHT22;43667;53.036;6.740;2022-10-24T10:21:59;17.50;99.90
57833;DHT22;43667;53.036;6.740;2022-10-24T10:24:39;17.60;99.90
57833;DHT22;43667;53.036;6.740;2022-10-24T10:30:08;17.50;99.90
57833;DHT22;43667;53.036;6.740;2022-10-24T10:35:29;17.40;99.90
57833;DHT22;43667;53.036;6.740;2022-10-24T10:40:36;17.30;99.90
57833;DHT22;43667;53.036;6.740;2022-10-24T10:43:34;17.30;99.90
57833;DHT22;43667;53.036;6.740;2022-10-24T10:49:50;17.40;99.90
57833;DHT22;43667;53.036;6.740;2022-10-24T10:54:57;17.50;99.90
57833;DHT22;43667;53.036;6.740;2022-10-24T10:57:36;17.70;99.90
57833;DHT22;43667;53.036;6.740;2022-10-24T11:00:40;17.70;99.90
57833;DHT22;43667;53.036;6.740;2022-10-24T11:06:07;17.50;99.90
57833;DHT22;43667;53.036;6.740;2022-10-24T11:11:46;17.50;99.90
57833;DHT22;43667;53.036;6.740;2022-10-24T11:14:30;17.40;99.90
57833;DHT22;43667;53.036;6.740;2022-10-24T11:17:04;17.40;99.90
57833;DHT22;43667;53.036;6.740;2022-10-24T11:19:46;17.40;99.90
57833;DHT22;43667;53.036;6.740;2022-10-24T11:22:20;17.50;99.90
57833;DHT22;43667;53.036;6.740;2022-10-24T11:24:55;17.50;99.90
57833;DHT22;43667;53.036;6.740;2022-10-24T11:27:27;17.50;99.90
57833;DHT22;43667;53.036;6.740;2022-10-24T11:30:15;17.60;99.90
57833;DHT22;43667;53.036;6.740;2022-10-24T11:32:55;17.70;99.90
57833;DHT22;43667;53.036;6.740;2022-10-24T11:35:32;17.60;99.90
57833;DHT22;43667;53.036;6.740;2022-10-24T11:38:19;17.70;99.90
57833;DHT22;43667;53.036;6.740;2022-10-24T11:40:49;17.70;99.90
57833;DHT22;43667;53.036;6.740;2022-10-24T11:43:27;17.70;99.90
57833;DHT22;43667;53.036;6.740;2022-10-24T11:45:59;17.60;99.90
57833;DHT22;43667;53.036;6.740;2022-10-24T11:48:39;17.50;99.90
57833;DHT22;43667;53.036;6.740;2022-10-24T11:51:17;17.50;99.90
57833;DHT22;43667;53.036;6.740;2022-10-24T11:59:00;17.70;99.90
57833;DHT22;43667;53.036;6.740;2022-10-24T12:02:06;17.80;99.90
57833;DHT22;43667;53.036;6.740;2022-10-24T12:04:58;17.80;99.90
57833;DHT22;43667;53.036;6.740;2022-10-24T12:20:33;17.90;99.90
57833;DHT22;43667;53.036;6.740;2022-10-24T12:23:00;18.00;99.90
57833;DHT22;43667;53.036;6.740;2022-10-24T12:25:36;18.00;99.90
57833;DHT22;43667;53.036;6.740;2022-10-24T12:28:03;17.90;99.90
57833;DHT22;43667;53.036;6.740;2022-10-24T12:30:33;17.80;99.90
57833;DHT22;43667;53.036;6.740;2022-10-24T12:33:24;17.70;99.90
57833;DHT22;43667;53.036;6.740;2022-10-24T12:35:51;17.80;99.90
57833;DHT22;43667;53.036;6.740;2022-10-24T12:40:53;18.00;99.90
57833;DHT22;43667;53.036;6.740;2022-10-24T12:46:00;17.80;99.90
57833;DHT22;43667;53.036;6.740;2022-10-24T12:48:36;17.70;99.90
57833;DHT22;43667;53.036;6.740;2022-10-24T12:51:31;17.60;99.90
57833;DHT22;43667;53.036;6.740;2022-10-24T12:56:30;17.40;99.90
57833;DHT22;43667;53.036;6.740;2022-10-24T12:58:58;17.40;99.90
57833;DHT22;43667;53.036;6.740;2022-10-24T13:01:33;17.30;99.90
57833;DHT22;43667;53.036;6.740;2022-10-24T13:15:27;17.30;99.90
57833;DHT22;43667;53.036;6.740;2022-10-24T13:21:31;17.20;99.90
57833;DHT22;43667;53.036;6.740;2022-10-24T13:32:38;17.00;99.90
57833;DHT22;43667;53.036;6.740;2022-10-24T13:34:52;17.00;99.90
57833;DHT22;43667;53.036;6.740;2022-10-24T13:37:28;17.00;99.90
57833;DHT22;43667;53.036;6.740;2022-10-24T13:40:00;17.10;99.90
57833;DHT22;43667;53.036;6.740;2022-10-24T13:42:29;17.10;99.90
57833;DHT22;43667;53.036;6.740;2022-10-24T13:44:59;17.10;99.90
57833;DHT22;43667;53.036;6.740;2022-10-24T13:47:41;17.20;99.90
57833;DHT22;43667;53.036;6.740;2022-10-24T13:50:20;17.30;99.90
57833;DHT22;43667;53.036;6.740;2022-10-24T13:52:57;17.30;99.90
57833;DHT22;43667;53.036;6.740;2022-10-24T14:01:17;17.30;99.90
57833;DHT22;43667;53.036;6.740;2022-10-24T14:03:32;17.20;99.90
57833;DHT22;43667;53.036;6.740;2022-10-24T14:06:03;17.10;99.90
57833;DHT22;43667;53.036;6.740;2022-10-24T14:08:38;17.10;99.90
57833;DHT22;43667;53.036;6.740;2022-10-24T14:11:11;17.00;99.90
57833;DHT22;43667;53.036;6.740;2022-10-24T14:13:44;17.00;99.90
57833;DHT22;43667;53.036;6.740;2022-10-24T14:16:11;16.90;99.90
57833;DHT22;43667;53.036;6.740;2022-10-24T14:18:37;16.90;99.90
57833;DHT22;43667;53.036;6.740;2022-10-24T14:21:12;16.90;99.90
57833;DHT22;43667;53.036;6.740;2022-10-24T14:23:40;16.90;99.90
57833;DHT22;43667;53.036;6.740;2022-10-24T14:26:09;17.00;99.90
57833;DHT22;43667;53.036;6.740;2022-10-24T14:28:38;16.90;99.90
57833;DHT22;43667;53.036;6.740;2022-10-24T14:31:22;16.80;99.90
57833;DHT22;43667;53.036;6.740;2022-10-24T14:33:49;16.80;99.90
57833;DHT22;43667;53.036;6.740;2022-10-24T14:36:17;16.70;99.90
57833;DHT22;43667;53.036;6.740;2022-10-24T14:38:46;16.70;99.90
57833;DHT22;43667;53.036;6.740;2022-10-24T14:41:17;16.70;99.90
57833;DHT22;43667;53.036;6.740;2022-10-24T14:43:44;16.60;99.90
57833;DHT22;43667;53.036;6.740;2022-10-24T14:48:41;16.40;99.90
57833;DHT22;43667;53.036;6.740;2022-10-24T14:51:30;16.40;99.90
57833;DHT22;43667;53.036;6.740;2022-10-24T14:53:58;16.30;99.90
57833;DHT22;43667;53.036;6.740;2022-10-24T14:56:31;16.20;99.90
57833;DHT22;43667;53.036;6.740;2022-10-24T14:59:00;16.20;99.90
57833;DHT22;43667;53.036;6.740;2022-10-24T15:01:27;16.20;99.90
57833;DHT22;43667;53.036;6.740;2022-10-24T15:04:04;16.10;99.90
57833;DHT22;43667;53.036;6.740;2022-10-24T15:06:39;16.10;99.90
57833;DHT22;43667;53.036;6.740;2022-10-24T15:11:42;16.10;99.90
57833;DHT22;43667;53.036;6.740;2022-10-24T15:14:39;16.10;99.90
57833;DHT22;43667;53.036;6.740;2022-10-24T15:17:24;16.10;99.90
57833;DHT22;43667;53.036;6.740;2022-10-24T15:19:57;16.00;99.90
57833;DHT22;43667;53.036;6.740;2022-10-24T15:22:32;15.90;99.90
57833;DHT22;43667;53.036;6.740;2022-10-24T15:25:00;15.80;99.90
57833;DHT22;43667;53.036;6.740;2022-10-24T15:27:41;15.80;99.90
57833;DHT22;43667;53.036;6.740;2022-10-24T15:30:15;15.80;99.90
57833;DHT22;43667;53.036;6.740;2022-10-24T15:32:41;15.80;99.90
57833;DHT22;43667;53.036;6.740;2022-10-24T15:35:07;15.80;99.90
57833;DHT22;43667;53.036;6.740;2022-10-24T15:37:33;15.70;99.90
57833;DHT22;43667;53.036;6.740;2022-10-24T15:40:03;15.70;99.90
57833;DHT22;43667;53.036;6.740;2022-10-24T15:42:30;15.70;99.90
57833;DHT22;43667;53.036;6.740;2022-10-24T15:44:55;15.60;99.90
57833;DHT22;43667;53.036;6.740;2022-10-24T15:47:21;15.60;99.90
57833;DHT22;43667;53.036;6.740;2022-10-24T15:49:48;15.60;99.90
57833;DHT22;43667;53.036;6.740;2022-10-24T15:52:16;15.50;99.90
57833;DHT22;43667;53.036;6.740;2022-10-24T15:54:42;15.50;99.90
57833;DHT22;43667;53.036;6.740;2022-10-24T15:57:12;15.50;99.90
57833;DHT22;43667;53.036;6.740;2022-10-24T15:59:38;15.40;99.90
57833;DHT22;43667;53.036;6.740;2022-10-24T16:02:03;15.40;99.90
57833;DHT22;43667;53.036;6.740;2022-10-24T16:04:29;15.40;99.90
57833;DHT22;43667;53.036;6.740;2022-10-24T16:06:57;15.30;99.90
57833;DHT22;43667;53.036;6.740;2022-10-24T16:09:25;15.30;99.90
57833;DHT22;43667;53.036;6.740;2022-10-24T16:11:52;15.30;99.90
57833;DHT22;43667;53.036;6.740;2022-10-24T16:14:19;15.20;99.90
57833;DHT22;43667;53.036;6.740;2022-10-24T16:16:45;15.20;99.90
57833;DHT22;43667;53.036;6.740;2022-10-24T16:19:11;15.10;99.90
57833;DHT22;43667;53.036;6.740;2022-10-24T16:21:38;15.10;99.90
57833;DHT22;43667;53.036;6.740;2022-10-24T16:24:04;15.00;99.90
57833;DHT22;43667;53.036;6.740;2022-10-24T16:26:30;15.00;99.90
57833;DHT22;43667;53.036;6.740;2022-10-24T16:28:56;15.00;99.90
57833;DHT22;43667;53.036;6.740;2022-10-24T16:31:21;14.90;99.90
57833;DHT22;43667;53.036;6.740;2022-10-24T16:33:50;14.90;99.90
57833;DHT22;43667;53.036;6.740;2022-10-24T16:36:16;14.90;99.90
57833;DHT22;43667;53.036;6.740;2022-10-24T16:38:44;14.90;99.90
57833;DHT22;43667;53.036;6.740;2022-10-24T16:41:19;14.80;99.90
57833;DHT22;43667;53.036;6.740;2022-10-24T16:43:45;14.80;99.90
57833;DHT22;43667;53.036;6.740;2022-10-24T16:46:14;14.70;99.90
57833;DHT22;43667;53.036;6.740;2022-10-24T16:48:40;14.70;99.90
57833;DHT22;43667;53.036;6.740;2022-10-24T16:51:20;14.60;99.90
57833;DHT22;43667;53.036;6.740;2022-10-24T16:53:46;14.60;99.90
57833;DHT22;43667;53.036;6.740;2022-10-24T16:56:13;14.60;99.90
57833;DHT22;43667;53.036;6.740;2022-10-24T16:58:39;14.50;99.90
57833;DHT22;43667;53.036;6.740;2022-10-24T17:01:13;14.50;99.90
57833;DHT22;43667;53.036;6.740;2022-10-24T17:03:39;14.40;99.90
57833;DHT22;43667;53.036;6.740;2022-10-24T17:06:05;14.30;99.90
57833;DHT22;43667;53.036;6.740;2022-10-24T17:08:32;14.30;99.90
57833;DHT22;43667;53.036;6.740;2022-10-24T17:10:57;14.30;99.90
57833;DHT22;43667;53.036;6.740;2022-10-24T17:13:25;14.20;99.90
57833;DHT22;43667;53.036;6.740;2022-10-24T17:15:51;14.20;99.90
57833;DHT22;43667;53.036;6.740;2022-10-24T17:18:17;14.20;99.90
57833;DHT22;43667;53.036;6.740;2022-10-24T17:20:48;14.10;99.90
57833;DHT22;43667;53.036;6.740;2022-10-24T17:23:16;14.10;99.90
57833;DHT22;43667;53.036;6.740;2022-10-24T17:25:43;14.10;99.90